createdAt,value
2019-01-21T00:01:24.603Z,100188.00
2019-01-21T00:03:55.112Z,100192.00
2019-01-21T00:06:25.620Z,100186.00
2019-01-21T00:08:56.147Z,100187.00
2019-01-21T00:11:26.566Z,100184.00
2019-01-21T00:13:57.020Z,100188.00
2019-01-21T00:16:27.442Z,100184.00
2019-01-21T00:18:57.937Z,100184.00
2019-01-21T00:21:28.354Z,100185.00
2019-01-21T00:23:58.781Z,100182.00
2019-01-21T00:26:29.275Z,100169.00
2019-01-21T00:28:59.731Z,100176.00
2019-01-21T00:31:30.122Z,100172.00
2019-01-21T00:34:00.654Z,100179.00
2019-01-21T00:36:31.091Z,100175.00
2019-01-21T00:39:01.476Z,100186.00
2019-01-21T00:41:31.910Z,100186.00
2019-01-21T00:44:02.194Z,100183.00
2019-01-21T00:46:51.742Z,100182.00
2019-01-21T00:49:22.225Z,100187.00
2019-01-21T00:51:52.653Z,100186.00
2019-01-21T00:54:23.091Z,100182.00
2019-01-21T00:56:53.523Z,100181.00
2019-01-21T00:59:24.004Z,100189.00
2019-01-21T01:01:54.433Z,100187.00
2019-01-21T01:04:24.858Z,100186.00
2019-01-21T01:06:55.293Z,100184.00
2019-01-21T01:09:25.734Z,100189.00
2019-01-21T01:11:56.213Z,100191.00
2019-01-21T01:14:26.661Z,100186.00
2019-01-21T01:16:57.216Z,100197.00
2019-01-21T01:19:27.658Z,100199.00
2019-01-21T01:21:58.115Z,100205.00
2019-01-21T01:24:28.541Z,100208.00
2019-01-21T01:26:59.020Z,100201.00
2019-01-21T01:29:29.424Z,100202.00
2019-01-21T01:31:59.915Z,100194.00
2019-01-21T01:34:30.397Z,100201.00
2019-01-21T01:37:00.840Z,100198.00
2019-01-21T01:39:31.317Z,100204.00
2019-01-21T01:42:01.773Z,100205.00
2019-01-21T01:44:32.482Z,100201.00
2019-01-21T01:47:02.917Z,100202.00
2019-01-21T01:49:33.357Z,100195.00
2019-01-21T01:52:03.818Z,100197.00
2019-01-21T01:54:34.245Z,100198.00
2019-01-21T01:57:05.094Z,100203.00
2019-01-21T01:59:35.503Z,100206.00
2019-01-21T02:02:06.038Z,100208.00
2019-01-21T02:04:36.505Z,100194.00
2019-01-21T02:07:07.167Z,100204.00
2019-01-21T02:09:37.638Z,100207.00
2019-01-21T02:12:08.070Z,100199.00
2019-01-21T02:14:38.503Z,100207.00
2019-01-21T02:17:08.983Z,100202.00
2019-01-21T02:19:42.290Z,100196.00
2019-01-21T02:22:15.195Z,100197.00
2019-01-21T02:24:47.548Z,100194.00
2019-01-21T02:27:54.883Z,100199.00
2019-01-21T02:31:09.528Z,100193.00
2019-01-21T02:34:30.664Z,100192.00
2019-01-21T02:37:37.590Z,100203.00
2019-01-21T02:40:39.475Z,100194.00
2019-01-21T02:44:22.289Z,100190.00
2019-01-21T02:48:07.562Z,100191.00
2019-01-21T02:51:32.212Z,100186.00
2019-01-21T02:54:48.363Z,100175.00
2019-01-21T02:58:19.052Z,100189.00
2019-01-21T03:01:36.517Z,100188.00
2019-01-21T03:05:24.900Z,100183.00
2019-01-21T03:08:30.737Z,100176.00
2019-01-21T03:11:59.641Z,100183.00
2019-01-21T03:15:31.701Z,100188.00
2019-01-21T03:19:32.837Z,100171.00
2019-01-21T03:22:54.545Z,100187.00
2019-01-21T03:25:59.993Z,100186.00
2019-01-21T03:29:10.224Z,100184.00
2019-01-21T03:32:48.445Z,100181.00
2019-01-21T03:35:56.304Z,100186.00
2019-01-21T03:39:23.989Z,100178.00
2019-01-21T03:42:33.870Z,100189.00
2019-01-21T03:45:56.295Z,100185.00
2019-01-21T03:48:51.288Z,100174.00
2019-01-21T03:52:37.027Z,100175.00
2019-01-21T03:55:13.590Z,100168.00
2019-01-21T03:58:22.374Z,100175.00
2019-01-21T04:01:21.328Z,100183.00
2019-01-21T04:04:55.897Z,100183.00
2019-01-21T04:08:15.355Z,100178.00
2019-01-21T04:11:39.462Z,100182.00
2019-01-21T04:15:07.928Z,100180.00
2019-01-21T04:18:36.659Z,100185.00
2019-01-21T04:21:54.727Z,100188.00
2019-01-21T04:25:54.497Z,100196.00
2019-01-21T04:29:09.129Z,100192.00
2019-01-21T04:32:41.279Z,100188.00
2019-01-21T04:35:40.796Z,100190.00
2019-01-21T04:41:57.453Z,100192.00
2019-01-21T04:45:21.834Z,100187.00
2019-01-21T04:48:47.117Z,100191.00
2019-01-21T04:52:13.070Z,100186.00
2019-01-21T04:55:30.408Z,100202.00
2019-01-21T04:59:09.489Z,100188.00
2019-01-21T05:02:36.183Z,100193.00
2019-01-21T05:05:51.561Z,100199.00
2019-01-21T05:09:34.483Z,100198.00
2019-01-21T05:13:03.471Z,100191.00
2019-01-21T05:16:27.377Z,100199.00
2019-01-21T05:19:52.664Z,100201.00
2019-01-21T05:23:25.096Z,100198.00
2019-01-21T05:26:34.952Z,100194.00
2019-01-21T05:29:58.774Z,100192.00
2019-01-21T05:33:24.190Z,100188.00
2019-01-21T05:36:44.572Z,100189.00
2019-01-21T05:40:06.792Z,100188.00
2019-01-21T05:43:16.866Z,100185.00
2019-01-21T05:46:32.122Z,100188.00
2019-01-21T05:49:37.291Z,100196.00
2019-01-21T05:53:17.125Z,100198.00
2019-01-21T05:56:20.995Z,100193.00
2019-01-21T06:00:02.029Z,100198.00
2019-01-21T06:03:27.137Z,100191.00
2019-01-21T06:06:41.922Z,100197.00
2019-01-21T06:09:58.236Z,100192.00
2019-01-21T06:13:27.430Z,100197.00
2019-01-21T06:17:03.340Z,100191.00
2019-01-21T06:20:25.026Z,100194.00
2019-01-21T06:23:37.766Z,100205.00
2019-01-21T06:27:13.241Z,100197.00
2019-01-21T06:30:22.528Z,100194.00
2019-01-21T06:34:01.862Z,100198.00
2019-01-21T06:37:09.431Z,100204.00
2019-01-21T06:40:53.780Z,100205.00
2019-01-21T06:44:32.379Z,100208.00
2019-01-21T06:48:17.423Z,100204.00
2019-01-21T06:52:07.494Z,100210.00
2019-01-21T06:55:18.237Z,100214.00
2019-01-21T06:58:36.967Z,100200.00
2019-01-21T07:01:50.167Z,100208.00
2019-01-21T07:05:07.496Z,100200.00
2019-01-21T07:08:37.943Z,100203.00
2019-01-21T07:11:38.094Z,100204.00
2019-01-21T07:14:54.872Z,100207.00
2019-01-21T07:18:36.286Z,100210.00
2019-01-21T07:21:40.951Z,100222.00
2019-01-21T07:24:42.958Z,100218.00
2019-01-21T07:27:58.589Z,100213.00
2019-01-21T07:31:12.417Z,100227.00
2019-01-21T07:34:48.149Z,100224.00
2019-01-21T07:38:27.895Z,100219.00
2019-01-21T07:41:30.242Z,100236.00
2019-01-21T07:44:54.896Z,100227.00
2019-01-21T07:48:48.292Z,100236.00
2019-01-21T07:51:55.595Z,100234.00
2019-01-21T07:55:38.558Z,100234.00
2019-01-21T07:59:27.797Z,100232.00
2019-01-21T08:02:51.493Z,100236.00
2019-01-21T08:06:03.556Z,100237.00
2019-01-21T08:09:42.576Z,100233.00
2019-01-21T08:12:54.365Z,100243.00
2019-01-21T08:16:06.954Z,100238.00
2019-01-21T08:19:35.547Z,100242.00
2019-01-21T08:22:54.985Z,100249.00
2019-01-21T08:26:15.461Z,100234.00
2019-01-21T08:30:07.152Z,100236.00
2019-01-21T08:33:21.312Z,100236.00
2019-01-21T08:36:27.965Z,100235.00
2019-01-21T08:40:04.830Z,100232.00
2019-01-21T08:43:48.801Z,100240.00
2019-01-21T08:47:28.490Z,100239.00
2019-01-21T08:50:50.600Z,100239.00
2019-01-21T08:53:58.975Z,100248.00
2019-01-21T08:57:11.692Z,100248.00
2019-01-21T09:00:26.823Z,100237.00
2019-01-21T09:04:01.972Z,100238.00
2019-01-21T09:07:25.703Z,100236.00
2019-01-21T09:10:52.626Z,100240.00
2019-01-21T09:14:07.666Z,100240.00
2019-01-21T09:17:16.545Z,100239.00
2019-01-21T09:20:36.808Z,100249.00
2019-01-21T09:24:11.474Z,100252.00
2019-01-21T09:27:24.657Z,100251.00
2019-01-21T09:30:52.133Z,100245.00
2019-01-21T09:34:21.253Z,100245.00
2019-01-21T09:38:01.004Z,100251.00
2019-01-21T09:41:08.268Z,100248.00
2019-01-21T09:44:29.151Z,100248.00
2019-01-21T09:46:57.188Z,100243.00
2019-01-21T09:49:25.155Z,100247.00
2019-01-21T09:52:18.408Z,100252.00
2019-01-21T09:54:50.034Z,100256.00
2019-01-21T09:57:27.833Z,100249.00
2019-01-21T10:00:04.857Z,100253.00
2019-01-21T10:02:51.908Z,100238.00
2019-01-21T10:05:25.200Z,100242.00
2019-01-21T10:08:30.427Z,100246.00
2019-01-21T10:12:03.500Z,100231.00
2019-01-21T10:15:08.808Z,100229.00
2019-01-21T10:18:17.084Z,100219.00
2019-01-21T10:22:00.344Z,100215.00
2019-01-21T10:25:26.564Z,100220.00
2019-01-21T10:29:07.921Z,100218.00
2019-01-21T10:32:38.755Z,100214.00
2019-01-21T10:35:51.296Z,100214.00
2019-01-21T10:39:19.228Z,100211.00
2019-01-21T10:42:45.418Z,100213.00
2019-01-21T10:46:31.243Z,100205.00
2019-01-21T10:50:00.628Z,100195.00
2019-01-21T10:53:39.452Z,100192.00
2019-01-21T10:57:09.985Z,100186.00
2019-01-21T11:00:30.833Z,100200.00
2019-01-21T11:04:03.839Z,100184.00
2019-01-21T11:07:27.576Z,100179.00
2019-01-21T11:10:40.656Z,100178.00
2019-01-21T11:14:16.327Z,100171.00
2019-01-21T11:17:23.337Z,100178.00
2019-01-21T11:20:38.264Z,100171.00
2019-01-21T11:23:55.607Z,100170.00
2019-01-21T11:27:34.377Z,100163.00
2019-01-21T11:30:53.470Z,100162.00
2019-01-21T11:34:19.248Z,100158.00
2019-01-21T11:38:08.440Z,100163.00
2019-01-21T11:41:16.362Z,100158.00
2019-01-21T11:44:36.170Z,100149.00
2019-01-21T11:47:46.865Z,100147.00
2019-01-21T11:51:22.148Z,100148.00
2019-01-21T11:54:33.969Z,100133.00
2019-01-21T11:58:04.657Z,100130.00
2019-01-21T12:01:26.169Z,100124.00
2019-01-21T12:04:35.051Z,100118.00
2019-01-21T12:07:52.609Z,100120.00
2019-01-21T12:11:18.399Z,100112.00
2019-01-21T12:14:52.070Z,100108.00
2019-01-21T12:18:25.440Z,100100.00
2019-01-21T12:21:38.975Z,100102.00
2019-01-21T12:24:53.031Z,100098.00
2019-01-21T12:28:40.052Z,100099.00
2019-01-21T12:31:38.638Z,100073.00
2019-01-21T12:35:06.347Z,100083.00
2019-01-21T12:38:11.085Z,100063.00
2019-01-21T12:41:37.712Z,100073.00
2019-01-21T12:44:42.367Z,100062.00
2019-01-21T12:47:50.138Z,100057.00
2019-01-21T12:51:05.292Z,100052.00
2019-01-21T12:54:38.086Z,100039.00
2019-01-21T12:58:08.464Z,100043.00
2019-01-21T13:01:23.600Z,100037.00
2019-01-21T13:04:55.231Z,100025.00
2019-01-21T13:08:16.003Z,100024.00
2019-01-21T13:11:32.992Z,100017.00
2019-01-21T13:14:50.307Z,100014.00
2019-01-21T13:18:19.408Z,100010.00
2019-01-21T13:21:53.954Z,100013.00
2019-01-21T13:25:41.408Z,99998.00
2019-01-21T13:29:01.052Z,99998.00
2019-01-21T13:32:42.361Z,99993.00
2019-01-21T13:35:52.189Z,99976.00
2019-01-21T13:39:47.518Z,99987.00
2019-01-21T13:42:46.830Z,99978.00
2019-01-21T13:46:09.556Z,99975.00
2019-01-21T13:49:19.843Z,99983.00
2019-01-21T13:53:01.783Z,99972.00
2019-01-21T13:56:00.534Z,99973.00
2019-01-21T13:59:30.595Z,99971.00
2019-01-21T14:02:23.459Z,99968.00
2019-01-21T14:05:22.008Z,99966.00
2019-01-21T14:08:44.853Z,99966.00
2019-01-21T14:12:09.091Z,99965.00
2019-01-21T14:15:32.457Z,99962.00
2019-01-21T14:18:27.620Z,99963.00
2019-01-21T14:21:28.587Z,99970.00
2019-01-21T14:25:04.503Z,99955.00
2019-01-21T14:28:00.004Z,99957.00
2019-01-21T14:31:34.961Z,99958.00
2019-01-21T14:35:05.651Z,99957.00
2019-01-21T14:38:17.946Z,99954.00
2019-01-21T14:42:06.857Z,99947.00
2019-01-21T14:45:42.075Z,99948.00
2019-01-21T14:49:21.634Z,99945.00
2019-01-21T14:52:50.045Z,99944.00
2019-01-21T14:56:10.996Z,99937.00
2019-01-21T14:59:38.362Z,99937.00
2019-01-21T15:03:22.392Z,99938.00
2019-01-21T15:06:29.517Z,99930.00
2019-01-21T15:09:46.337Z,99941.00
2019-01-21T15:13:05.198Z,99945.00
2019-01-21T15:16:07.736Z,99943.00
2019-01-21T15:19:07.681Z,99927.00
2019-01-21T15:22:27.508Z,99925.00
2019-01-21T15:26:05.455Z,99921.00
2019-01-21T15:29:22.446Z,99932.00
2019-01-21T15:32:43.142Z,99931.00
2019-01-21T15:35:50.451Z,99936.00
2019-01-21T15:39:27.625Z,99934.00
2019-01-21T15:43:08.096Z,99936.00
2019-01-21T15:46:25.350Z,99943.00
2019-01-21T15:49:34.490Z,99941.00
2019-01-21T15:52:38.089Z,99933.00
2019-01-21T15:55:27.142Z,99931.00
2019-01-21T15:58:48.880Z,99934.00
2019-01-21T16:02:24.756Z,99935.00
2019-01-21T16:05:31.303Z,99945.00
2019-01-21T16:08:32.499Z,99932.00
2019-01-21T16:12:08.168Z,99927.00
2019-01-21T16:15:49.553Z,99932.00
2019-01-21T16:18:52.868Z,99926.00
2019-01-21T16:22:19.693Z,99921.00
2019-01-21T16:25:51.540Z,99914.00
2019-01-21T16:29:17.176Z,99921.00
2019-01-21T16:32:30.846Z,99923.00
2019-01-21T16:35:46.195Z,99930.00
2019-01-21T16:39:02.401Z,99927.00
2019-01-21T16:42:08.655Z,99921.00
2019-01-21T16:44:39.191Z,99925.00
2019-01-21T16:47:09.664Z,99928.00
2019-01-21T16:49:40.191Z,99929.00
2019-01-21T16:52:10.677Z,99923.00
2019-01-21T16:54:41.320Z,99929.00
2019-01-21T16:57:11.942Z,99926.00
2019-01-21T16:59:42.442Z,99927.00
2019-01-21T17:02:12.933Z,99914.00
2019-01-21T17:04:43.499Z,99930.00
2019-01-21T17:07:14.159Z,99918.00
2019-01-21T17:09:44.680Z,99920.00
2019-01-21T17:12:15.236Z,99919.00
2019-01-21T17:14:45.822Z,99919.00
2019-01-21T17:17:16.326Z,99925.00
2019-01-21T17:19:47.165Z,99931.00
2019-01-21T17:22:17.648Z,99938.00
2019-01-21T17:24:48.237Z,99934.00
2019-01-21T17:27:18.835Z,99924.00
2019-01-21T17:29:49.372Z,99923.00
2019-01-21T17:32:19.971Z,99913.00
2019-01-21T17:34:50.504Z,99900.00
2019-01-21T17:37:21.045Z,99897.00
2019-01-21T17:39:51.645Z,99896.00
2019-01-21T17:42:22.140Z,99893.00
2019-01-21T17:44:55.132Z,99885.00
2019-01-21T17:47:25.586Z,99880.00
2019-01-21T17:49:56.189Z,99887.00
2019-01-21T17:52:28.900Z,99877.00
2019-01-21T17:54:59.368Z,99885.00
2019-01-21T17:57:30.323Z,99882.00
2019-01-21T18:00:01.083Z,99882.00
2019-01-21T18:02:31.574Z,99875.00
2019-01-21T18:05:02.144Z,99904.00
2019-01-21T18:07:32.685Z,99898.00
2019-01-21T18:10:03.191Z,99888.00
2019-01-21T18:12:33.913Z,99886.00
2019-01-21T18:15:05.152Z,99883.00
2019-01-21T18:17:35.634Z,99883.00
2019-01-21T18:20:13.095Z,99881.00
2019-01-21T18:22:43.527Z,99883.00
2019-01-21T18:25:14.514Z,99877.00
2019-01-21T18:27:44.985Z,99865.00
2019-01-21T18:30:23.309Z,99871.00
2019-01-21T18:32:53.782Z,99857.00
2019-01-21T18:35:24.379Z,99853.00
2019-01-21T18:37:55.233Z,99846.00
2019-01-21T18:40:25.799Z,99849.00
2019-01-21T18:42:56.373Z,99842.00
2019-01-21T18:45:28.697Z,99851.00
2019-01-21T18:47:59.195Z,99841.00
2019-01-21T18:50:29.692Z,99844.00
2019-01-21T18:53:00.228Z,99840.00
2019-01-21T18:55:30.721Z,99848.00
2019-01-21T18:58:01.190Z,99841.00
2019-01-21T19:00:32.189Z,99843.00
2019-01-21T19:03:02.734Z,99845.00
2019-01-21T19:05:33.238Z,99852.00
2019-01-21T19:08:03.845Z,99864.00
2019-01-21T19:10:34.547Z,99872.00
2019-01-21T19:13:05.082Z,99869.00
2019-01-21T19:15:35.623Z,99872.00
2019-01-21T19:18:06.750Z,99863.00
2019-01-21T19:20:37.267Z,99865.00
2019-01-21T19:23:07.775Z,99858.00
2019-01-21T19:25:38.344Z,99864.00
2019-01-21T19:28:08.826Z,99876.00
2019-01-21T19:30:39.516Z,99876.00
2019-01-21T19:33:10.017Z,99874.00
2019-01-21T19:35:48.142Z,99874.00
2019-01-21T19:38:18.575Z,99871.00
2019-01-21T19:40:51.210Z,99869.00
2019-01-21T19:43:24.513Z,99872.00
2019-01-21T19:45:57.336Z,99867.00
2019-01-21T19:48:28.360Z,99866.00
2019-01-21T19:50:59.123Z,99868.00
2019-01-21T19:53:29.865Z,99862.00
2019-01-21T19:56:00.442Z,99867.00
2019-01-21T19:58:30.904Z,99858.00
2019-01-21T20:01:01.383Z,99855.00
2019-01-21T20:03:31.894Z,99858.00
2019-01-21T20:06:02.610Z,99863.00
2019-01-21T20:08:33.163Z,99847.00
2019-01-21T20:11:03.621Z,99862.00
2019-01-21T20:13:34.068Z,99873.00
2019-01-21T20:16:04.639Z,99874.00
2019-01-21T20:18:35.116Z,99875.00
2019-01-21T20:21:05.630Z,99866.00
2019-01-21T20:23:36.080Z,99838.00
2019-01-21T20:26:06.523Z,99861.00
2019-01-21T20:28:37.023Z,99858.00
2019-01-21T20:31:07.558Z,99860.00
2019-01-21T20:33:38.022Z,99850.00
2019-01-21T20:36:08.563Z,99836.00
2019-01-21T20:38:39.053Z,99838.00
2019-01-21T20:41:09.539Z,99834.00
2019-01-21T20:43:39.971Z,99825.00
2019-01-21T20:46:10.479Z,99826.00
2019-01-21T20:48:40.901Z,99834.00
2019-01-21T20:51:11.442Z,99829.00
2019-01-21T20:53:41.847Z,99811.00
2019-01-21T20:56:12.300Z,99820.00
2019-01-21T20:58:42.863Z,99811.00
2019-01-21T21:01:13.336Z,99820.00
2019-01-21T21:03:43.800Z,99819.00
2019-01-21T21:06:14.493Z,99809.00
2019-01-21T21:08:44.986Z,99826.00
2019-01-21T21:11:15.574Z,99806.00
2019-01-21T21:13:46.044Z,99808.00
2019-01-21T21:16:16.574Z,99802.00
2019-01-21T21:18:47.067Z,99803.00
2019-01-21T21:21:17.615Z,99809.00
2019-01-21T21:23:48.134Z,99805.00
2019-01-21T21:26:18.750Z,99817.00
2019-01-21T21:28:49.201Z,99827.00
2019-01-21T21:31:19.913Z,99829.00
2019-01-21T21:33:50.513Z,99829.00
2019-01-21T21:36:21.022Z,99835.00
2019-01-21T21:38:51.650Z,99835.00
2019-01-21T21:41:22.127Z,99837.00
2019-01-21T21:43:52.698Z,99826.00
2019-01-21T21:46:23.228Z,99829.00
2019-01-21T21:48:53.725Z,99825.00
2019-01-21T21:51:24.210Z,99817.00
2019-01-21T21:53:54.667Z,99817.00
2019-01-21T21:56:25.152Z,99823.00
2019-01-21T21:58:55.645Z,99807.00
2019-01-21T22:01:26.129Z,99808.00
2019-01-21T22:03:56.651Z,99804.00
2019-01-21T22:06:27.127Z,99812.00
2019-01-21T22:08:57.612Z,99805.00
2019-01-21T22:11:28.092Z,99795.00
2019-01-21T22:13:58.731Z,99793.00
2019-01-21T22:16:29.204Z,99794.00
2019-01-21T22:18:59.689Z,99791.00
2019-01-21T22:21:30.166Z,99793.00
2019-01-21T22:24:00.604Z,99797.00
2019-01-21T22:26:31.175Z,99781.00
2019-01-21T22:29:01.637Z,99783.00
2019-01-21T22:31:32.124Z,99785.00
2019-01-21T22:34:02.758Z,99785.00
2019-01-21T22:36:33.280Z,99779.00
2019-01-21T22:39:05.597Z,99784.00
2019-01-21T22:41:36.056Z,99783.00
2019-01-21T22:44:06.496Z,99773.00
2019-01-21T22:46:36.979Z,99783.00
2019-01-21T22:49:07.686Z,99777.00
2019-01-21T22:51:38.130Z,99765.00
2019-01-21T22:54:08.532Z,99766.00
2019-01-21T22:56:38.976Z,99764.00
2019-01-21T22:59:09.457Z,99758.00
2019-01-21T23:01:39.988Z,99750.00
2019-01-21T23:04:10.856Z,99767.00
2019-01-21T23:06:41.304Z,99755.00
2019-01-21T23:09:11.860Z,99749.00
2019-01-21T23:11:42.280Z,99746.00
2019-01-21T23:14:12.751Z,99750.00
2019-01-21T23:16:43.211Z,99738.00
2019-01-21T23:19:13.717Z,99740.00
2019-01-21T23:21:44.125Z,99742.00
2019-01-21T23:24:16.704Z,99747.00
2019-01-21T23:26:47.180Z,99733.00
2019-01-21T23:29:17.698Z,99747.00
2019-01-21T23:31:48.110Z,99744.00
2019-01-21T23:34:18.614Z,99731.00
2019-01-21T23:36:49.357Z,99737.00
2019-01-21T23:39:19.795Z,99739.00
2019-01-21T23:41:50.261Z,99731.00
2019-01-21T23:44:20.731Z,99730.00
2019-01-21T23:46:51.149Z,99735.00
2019-01-21T23:49:21.644Z,99727.00
2019-01-21T23:51:52.048Z,99714.00
2019-01-21T23:54:22.509Z,99716.00
2019-01-21T23:56:53.005Z,99718.00
2019-01-21T23:59:23.566Z,99710.00
